Hovedside
METAR-TAF:

METAR-TAF

Lufthavner :

Cambridge, England

breddegrad: 52-12N, lengdegrad: 000-11E, høyde over havet: 15 m

Gjeldene værobservasjon

Denne rapporten ble laget for 3 timer og 51 minutter siden, klokken 17:50 UTC
Vind 13 kt fra Sør
Temperatur 8°C
Luftfuktighet 93%
Trykk 977 hPa
Sikt: 9000 m
Brutte skyer i en høyde av 1100 ft
regn

METAR: EGSC 121750Z 17013KT 9000 RA BKN011 08/07 Q0977

Tid: 21:41 (21:41 UTC)

Varsel

Denne rapporten ble laget for 3 timer og 29 minutter siden, klokken 18:12 UTC
Varsel gyldig fra 12. klokken 18 UTC til 12. klokken 19 UTC
Vind 10 kt fra Sør
Sikt 10 km eller mer
Spredte skyer i en høyde av 4000 ft
Blir
fra 12. klokken 18 UTC til 12. klokken 19 UTC
Vind 8 kt fra Sørvest
Sannsynlighet 30% :
Midlertidig
fra 12. klokken 18 UTC til 12. klokken 19 UTC
Sikt: 7000 m
Brutte skyer i en høyde av 1400 ft
regn

TAF: EGSC 121812Z 1218/1219 17010KT 9999 SCT040 BECMG 1218/1219 23008KT PROB30 TEMPO 1218/1219 7000 RA BKN014

Værobservasjoner og værvarsel for over 4000 flyplasser (METAR- og TAF-rapporter).

Tilgjengelige stasjoner er representert av de røde og gule prikkene på kartet.

Hold musepekeren over prikken for å se navnet på stasjonen.

Klikk så for å se værobservasjoner og -varsler.

For å forandre kartet kan du klikke på den grønne knappen med svart kryss for å zoome inn, på den grønne knappen med strek for å zoome ut, eller på de grønne pilene for å se tilstøtende kart.


METAR-TAF: